Time;durP1;ratioP1;P1;durP2;ratioP2;P2;SDS_P1;SDS_P2;PMS_P1;PMS_P2;Temp;Humidity;BMP_temperature;BMP_pressure;BME280_temperature;BME280_humidity;BME280_pressure;Samples;Min_cycle;Max_cycle;Signal;HPM_P1;HPM_P2
2022/10/22 00:01:23;;;;;;;9.50;2.33;;;;;;;12.11;100.00;100853.75;5038441;28;20146;-74
2022/10/22 00:03:48;;;;;;;7.35;2.42;;;;;;;12.09;100.00;100845.06;5053885;28;20021;-74
2022/10/22 00:06:14;;;;;;;8.73;2.30;;;;;;;12.07;100.00;100849.72;5054377;28;20033;-74
2022/10/22 00:08:39;;;;;;;4.40;2.15;;;;;;;12.05;100.00;100846.38;5053843;28;20091;-74
2022/10/22 00:11:12;;;;;;;8.38;2.60;;;;;;;12.01;100.00;100844.97;5054247;28;20033;-74
2022/10/22 00:13:38;;;;;;;8.35;2.45;;;;;;;11.98;100.00;100854.94;5053957;28;20331;-75
2022/10/22 00:16:03;;;;;;;7.90;2.80;;;;;;;11.96;100.00;100848.91;5054339;28;20527;-74
2022/10/22 00:18:29;;;;;;;8.48;3.35;;;;;;;11.97;100.00;100860.41;5054231;28;20159;-74
2022/10/22 00:20:54;;;;;;;8.57;2.25;;;;;;;11.96;100.00;100858.75;5053763;28;20360;-74
2022/10/22 00:23:19;;;;;;;8.73;2.58;;;;;;;11.94;100.00;100864.25;5054454;28;20084;-74
2022/10/22 00:25:45;;;;;;;8.82;2.50;;;;;;;11.91;100.00;100860.97;5053596;28;20069;-74
2022/10/22 00:28:10;;;;;;;8.98;2.47;;;;;;;11.92;100.00;100876.81;5054047;28;20494;-74
2022/10/22 00:30:36;;;;;;;6.80;2.38;;;;;;;11.93;100.00;100875.88;5052578;28;20537;-75
2022/10/22 00:33:01;;;;;;;11.18;2.80;;;;;;;11.99;100.00;100869.13;5054075;28;20123;-74
2022/10/22 00:35:27;;;;;;;8.65;2.60;;;;;;;12.04;100.00;100880.16;5054052;28;20067;-74
2022/10/22 00:37:52;;;;;;;12.73;2.50;;;;;;;12.13;100.00;100875.78;5053436;28;20059;-75
2022/10/22 00:40:17;;;;;;;9.60;3.30;;;;;;;12.17;100.00;100885.19;5053816;28;20035;-74
2022/10/22 00:42:43;;;;;;;6.72;2.88;;;;;;;12.24;100.00;100880.06;5052954;28;20029;-74
2022/10/22 00:45:08;;;;;;;5.03;2.15;;;;;;;12.32;100.00;100878.34;5054012;28;20036;-73
2022/10/22 00:47:42;;;;;;;4.85;2.15;;;;;;;12.36;100.00;100878.91;5053627;28;20517;-76
2022/10/22 00:50:14;;;;;;;10.13;2.40;;;;;;;12.42;100.00;100882.78;5053571;28;20029;-74
2022/10/22 00:52:40;;;;;;;5.68;2.10;;;;;;;12.49;100.00;100886.53;5053182;28;20029;-74
2022/10/22 00:55:06;;;;;;;5.40;2.08;;;;;;;12.55;100.00;100879.75;5053632;28;20431;-74
2022/10/22 00:57:33;;;;;;;8.25;2.70;;;;;;;12.60;100.00;100875.66;5053320;28;20036;-74
2022/10/22 00:59:59;;;;;;;9.73;2.20;;;;;;;12.64;100.00;100887.66;5053088;28;20040;-74
2022/10/22 01:02:25;;;;;;;11.60;2.30;;;;;;;12.68;100.00;100886.38;5053480;28;20025;-74
2022/10/22 01:04:50;;;;;;;11.38;2.58;;;;;;;12.75;100.00;100875.97;5053073;28;20037;-74
2022/10/22 01:07:19;;;;;;;8.07;2.25;;;;;;;12.79;100.00;100876.47;5053526;28;20029;-74
2022/10/22 01:10:10;;;;;;;11.32;2.22;;;;;;;12.84;100.00;100879.53;5052784;28;20037;-75
2022/10/22 01:12:39;;;;;;;10.40;1.98;;;;;;;12.88;100.00;100878.22;5053350;28;20071;-74
2022/10/22 01:15:10;;;;;;;8.13;2.05;;;;;;;12.92;100.00;100890.28;5053209;28;20112;-74
2022/10/22 01:17:50;;;;;;;;;;;;;;;12.95;100.00;100889.97;5053675;28;20033;-74
2022/10/22 01:20:40;;;;;;;7.72;2.40;;;;;;;12.97;100.00;100887.16;5053138;28;19920;-74
2022/10/22 01:23:05;;;;;;;8.43;2.00;;;;;;;12.98;100.00;100895.00;5053107;28;20116;-74
2022/10/22 01:25:33;;;;;;;7.57;2.15;;;;;;;13.00;100.00;100894.84;5052795;28;20108;-75
2022/10/22 01:28:04;;;;;;;5.72;1.90;;;;;;;12.99;100.00;100896.69;5052648;28;20032;-74
2022/10/22 01:30:29;;;;;;;6.03;2.30;;;;;;;13.00;100.00;100885.03;5052692;28;20033;-74
2022/10/22 01:33:02;;;;;;;6.55;2.10;;;;;;;13.00;100.00;100886.84;5034388;28;20040;-74
2022/10/22 01:35:33;;;;;;;5.13;2.65;;;;;;;12.99;100.00;100894.03;5052870;28;20481;-74
2022/10/22 01:38:03;;;;;;;6.23;2.03;;;;;;;12.95;100.00;100892.66;5052218;28;20036;-74
2022/10/22 01:40:29;;;;;;;9.32;2.05;;;;;;;12.88;100.00;100904.94;5053096;28;20032;-74
2022/10/22 01:43:00;;;;;;;10.68;2.22;;;;;;;12.82;100.00;100893.06;5050918;28;20037;-74
2022/10/22 01:45:28;;;;;;;8.15;2.33;;;;;;;12.77;100.00;100887.31;5052785;28;20029;-74
2022/10/22 01:48:29;;;;;;;7.93;2.20;;;;;;;12.73;100.00;100891.28;5052060;28;20138;-74
2022/10/22 01:51:28;;;;;;;6.90;2.55;;;;;;;12.67;100.00;100892.75;5013146;28;20041;-73
2022/10/22 01:54:05;;;;;;;5.63;1.90;;;;;;;12.63;100.00;100894.03;5032595;28;20088;-74
2022/10/22 01:56:35;;;;;;;8.48;1.98;;;;;;;12.58;100.00;100888.28;5031192;28;20033;-74
2022/10/22 01:59:27;;;;;;;3.33;1.88;;;;;;;12.52;100.00;100881.75;5032140;28;20029;-73
2022/10/22 02:01:58;;;;;;;10.63;2.45;;;;;;;12.48;100.00;100883.03;5032333;28;20036;-74
2022/10/22 02:04:40;;;;;;;7.03;2.75;;;;;;;12.49;100.00;100886.53;5032552;28;20029;-74
2022/10/22 02:07:07;;;;;;;10.00;2.22;;;;;;;12.45;100.00;100898.47;5031962;28;20037;-74
2022/10/22 02:09:34;;;;;;;10.68;2.10;;;;;;;12.38;100.00;100900.09;5043682;28;20033;-74
2022/10/22 02:12:02;;;;;;;6.82;2.63;;;;;;;12.31;100.00;100898.00;5051726;28;20033;-73
2022/10/22 02:14:30;;;;;;;7.35;2.30;;;;;;;12.26;100.00;100894.13;5052118;28;20060;-73
2022/10/22 02:16:57;;;;;;;8.57;2.53;;;;;;;12.26;100.00;100888.78;5051832;28;20029;-73
2022/10/22 02:19:37;;;;;;;10.18;2.25;;;;;;;12.20;100.00;100890.22;5052067;28;20051;-73
2022/10/22 02:22:03;;;;;;;6.95;1.95;;;;;;;12.16;100.00;100891.47;5051887;28;20048;-74
2022/10/22 02:24:28;;;;;;;9.65;2.53;;;;;;;12.14;100.00;100896.97;5051820;28;20567;-73
2022/10/22 02:27:19;;;;;;;10.77;2.40;;;;;;;12.10;100.00;100892.09;5051481;28;20052;-74
2022/10/22 02:29:59;;;;;;;6.72;2.08;;;;;;;12.09;100.00;100895.72;5052114;28;20028;-74
2022/10/22 02:32:31;;;;;;;8.30;2.10;;;;;;;12.08;100.00;100894.91;5052142;28;20029;-74
2022/10/22 02:34:58;;;;;;;5.97;2.10;;;;;;;12.07;100.00;100895.88;5051545;28;20021;-74
2022/10/22 02:37:24;;;;;;;6.15;2.00;;;;;;;12.04;100.00;100893.50;5051879;28;20041;-74
2022/10/22 02:39:51;;;;;;;7.22;2.03;;;;;;;12.03;100.00;100891.00;5051146;28;20040;-76
2022/10/22 02:42:17;;;;;;;5.45;2.03;;;;;;;12.05;100.00;100881.03;5051943;28;20059;-74
2022/10/22 02:44:43;;;;;;;7.05;1.80;;;;;;;12.06;100.00;100888.88;5051929;28;20473;-73
2022/10/22 02:47:08;;;;;;;6.03;2.28;;;;;;;12.06;100.00;100894.22;5051535;28;20111;-73
2022/10/22 02:49:33;;;;;;;6.85;1.98;;;;;;;12.11;100.00;100891.09;5051812;28;20087;-74
2022/10/22 02:51:59;;;;;;;9.15;2.38;;;;;;;12.10;100.00;100892.09;5051385;28;20532;-74
2022/10/22 02:54:24;;;;;;;8.77;1.95;;;;;;;12.11;100.00;100891.94;5054419;28;20453;-74
2022/10/22 02:56:49;;;;;;;14.48;2.60;;;;;;;12.14;100.00;100888.97;5055891;28;20385;-74
2022/10/22 02:59:15;;;;;;;9.98;2.40;;;;;;;12.11;100.00;100888.44;5055289;28;20115;-74
2022/10/22 03:01:40;;;;;;;10.88;2.55;;;;;;;12.06;100.00;100888.03;5054940;28;20032;-74
2022/10/22 03:04:06;;;;;;;7.75;1.92;;;;;;;12.03;100.00;100889.16;5055758;28;20512;-75
2022/10/22 03:06:31;;;;;;;4.28;1.90;;;;;;;12.08;100.00;100896.75;5056164;28;20116;-73
2022/10/22 03:08:56;;;;;;;9.77;2.15;;;;;;;12.04;100.00;100887.34;5055659;28;20082;-74
2022/10/22 03:11:22;;;;;;;18.40;2.90;;;;;;;12.01;100.00;100890.31;5056011;28;20032;-74
2022/10/22 03:13:47;;;;;;;11.38;2.03;;;;;;;11.97;100.00;100895.94;5055623;28;20040;-74
2022/10/22 03:16:13;;;;;;;7.95;2.13;;;;;;;11.91;100.00;100899.16;5055563;28;20103;-73
2022/10/22 03:18:38;;;;;;;10.90;2.40;;;;;;;11.89;100.00;100903.78;5055610;28;20342;-73
2022/10/22 03:21:29;;;;;;;8.57;2.30;;;;;;;11.86;100.00;100903.25;5055527;28;20033;-74
2022/10/22 03:23:55;;;;;;;9.23;2.00;;;;;;;11.85;100.00;100897.06;5055174;28;20056;-76
2022/10/22 03:26:21;;;;;;;8.57;2.42;;;;;;;11.83;100.00;100899.88;5055208;28;20523;-74
2022/10/22 03:28:47;;;;;;;5.53;2.20;;;;;;;11.86;100.00;100895.25;5055573;28;20076;-74
2022/10/22 03:31:13;;;;;;;10.55;2.30;;;;;;;11.81;100.00;100896.50;5054835;28;20457;-74
2022/10/22 03:33:38;;;;;;;13.70;2.70;;;;;;;11.81;100.00;100893.84;5055024;28;20068;-74
2022/10/22 03:36:06;;;;;;;9.02;2.13;;;;;;;11.86;100.00;100901.41;5054348;28;20044;-74
2022/10/22 03:38:34;;;;;;;8.63;1.98;;;;;;;11.93;100.00;100896.38;5055510;28;20461;-74
2022/10/22 03:41:00;;;;;;;6.85;2.10;;;;;;;12.03;100.00;100910.47;5054675;28;20051;-75
2022/10/22 03:43:25;;;;;;;11.05;2.13;;;;;;;12.10;100.00;100910.75;5055165;28;20029;-74
2022/10/22 03:45:50;;;;;;;7.65;1.90;;;;;;;12.13;100.00;100908.63;5054659;28;20128;-74
2022/10/22 03:48:16;;;;;;;6.57;2.00;;;;;;;12.20;100.00;100900.88;5054349;28;20036;-73
2022/10/22 03:50:41;;;;;;;10.75;2.90;;;;;;;12.27;100.00;100909.13;5054803;28;20060;-74
2022/10/22 03:53:09;;;;;;;7.60;1.92;;;;;;;12.32;100.00;100907.69;5054214;28;20029;-74
2022/10/22 03:55:34;;;;;;;7.05;2.38;;;;;;;12.34;100.00;100911.03;5055126;28;20033;-74
2022/10/22 03:58:00;;;;;;;9.52;2.25;;;;;;;12.35;100.00;100915.38;5054350;28;20044;-76
2022/10/22 04:00:25;;;;;;;7.45;2.15;;;;;;;12.32;100.00;100915.69;5054280;28;20082;-73
2022/10/22 04:02:50;;;;;;;7.10;2.13;;;;;;;12.33;100.00;100916.53;5055015;28;20032;-74
2022/10/22 04:05:16;;;;;;;5.78;1.90;;;;;;;12.31;100.00;100916.66;5053152;28;20408;-74
2022/10/22 04:07:41;;;;;;;10.35;2.53;;;;;;;12.30;100.00;100920.34;5054427;28;20032;-74
2022/10/22 04:10:07;;;;;;;6.97;2.17;;;;;;;12.32;100.00;100931.69;5053880;28;20033;-74
2022/10/22 04:12:32;;;;;;;11.52;2.25;;;;;;;12.28;100.00;100922.31;5054639;28;20524;-74
2022/10/22 04:14:57;;;;;;;17.20;2.47;;;;;;;12.27;100.00;100917.13;5054679;28;20025;-74
2022/10/22 04:17:23;;;;;;;6.05;2.10;;;;;;;12.24;100.00;100920.09;5054004;28;20481;-74
2022/10/22 04:19:48;;;;;;;8.73;2.38;;;;;;;12.18;100.00;100918.84;5054417;28;20526;-74
2022/10/22 04:22:13;;;;;;;8.73;2.00;;;;;;;12.17;100.00;100922.50;5054031;28;20112;-74
2022/10/22 04:24:39;;;;;;;7.78;2.13;;;;;;;12.15;100.00;100922.66;5054328;28;20057;-74
2022/10/22 04:27:04;;;;;;;8.07;2.45;;;;;;;12.12;100.00;100925.63;5052678;28;20071;-77
2022/10/22 04:29:29;;;;;;;6.65;2.25;;;;;;;12.10;100.00;100927.59;5054052;28;20033;-74
2022/10/22 04:31:55;;;;;;;10.38;2.10;;;;;;;12.10;100.00;100927.59;5053848;28;20044;-74
2022/10/22 04:34:20;;;;;;;8.88;2.45;;;;;;;12.13;100.00;100931.78;5053545;28;20079;-74
2022/10/22 04:36:46;;;;;;;10.82;2.33;;;;;;;12.12;100.00;100936.28;5053955;28;20025;-74
2022/10/22 04:39:11;;;;;;;14.75;2.25;;;;;;;12.08;100.00;100934.06;5053349;28;20032;-74
2022/10/22 04:41:38;;;;;;;6.60;1.77;;;;;;;12.07;100.00;100933.22;5053861;28;20108;-73
2022/10/22 04:44:05;;;;;;;11.07;2.28;;;;;;;12.06;100.00;100942.22;5054152;28;20048;-74
2022/10/22 04:46:33;;;;;;;9.63;2.28;;;;;;;12.06;100.00;100942.22;5053766;28;20051;-74
2022/10/22 04:48:58;;;;;;;5.85;2.10;;;;;;;11.99;100.00;100941.13;5053853;28;20025;-74
2022/10/22 04:51:25;;;;;;;7.82;2.15;;;;;;;11.98;100.00;100945.59;5052852;28;20032;-74
2022/10/22 04:53:51;;;;;;;9.75;2.03;;;;;;;11.90;100.00;100945.47;5053455;28;20067;-74
2022/10/22 04:56:18;;;;;;;8.52;2.15;;;;;;;11.87;100.00;100947.56;5053440;28;20078;-74
2022/10/22 04:58:44;;;;;;;12.07;2.35;;;;;;;11.83;100.00;100947.84;5053224;28;20025;-74
2022/10/22 05:01:22;;;;;;;8.30;2.08;;;;;;;11.82;100.00;100958.66;5053298;28;20039;-75
2022/10/22 05:03:49;;;;;;;13.20;2.05;;;;;;;11.82;100.00;100958.66;5053641;28;20032;-74
2022/10/22 05:06:16;;;;;;;10.50;1.90;;;;;;;11.76;100.00;100965.44;5052826;28;20041;-74
2022/10/22 05:08:42;;;;;;;10.05;2.38;;;;;;;11.81;100.00;100970.34;5053349;28;20405;-75
2022/10/22 05:11:16;;;;;;;9.45;2.22;;;;;;;11.85;100.00;100965.53;5052579;28;20389;-74
2022/10/22 05:13:41;;;;;;;10.13;2.40;;;;;;;11.91;100.00;100970.28;5053532;28;20037;-74
2022/10/22 05:16:07;;;;;;;14.57;3.63;;;;;;;11.96;100.00;100974.25;5053267;28;20025;-75
2022/10/22 05:18:34;;;;;;;8.98;2.47;;;;;;;12.00;100.00;100974.78;5052701;28;20048;-74
2022/10/22 05:21:00;;;;;;;6.43;1.90;;;;;;;12.03;100.00;100968.31;5051610;28;20385;-74
2022/10/22 05:23:25;;;;;;;7.05;2.28;;;;;;;12.04;100.00;100973.50;5052465;28;20066;-74
2022/10/22 05:25:51;;;;;;;9.90;2.20;;;;;;;12.08;100.00;100974.06;5051261;28;20127;-74
2022/10/22 05:28:16;;;;;;;17.92;4.75;;;;;;;12.12;100.00;100970.97;5052812;28;20033;-75
2022/10/22 05:30:41;;;;;;;9.18;2.40;;;;;;;12.19;100.00;100976.53;5053286;28;20072;-74
2022/10/22 05:33:07;;;;;;;10.40;2.22;;;;;;;12.22;100.00;100975.41;5053265;28;20033;-74
2022/10/22 05:35:32;;;;;;;7.20;1.92;;;;;;;12.24;100.00;100974.28;5052352;28;20037;-74
2022/10/22 05:37:58;;;;;;;11.38;2.20;;;;;;;12.28;100.00;100969.50;5053115;28;20063;-74
2022/10/22 05:40:23;;;;;;;7.20;1.80;;;;;;;12.32;100.00;100978.91;5052296;28;20036;-74
2022/10/22 05:42:48;;;;;;;9.38;1.90;;;;;;;12.34;100.00;100975.06;5053020;28;20033;-74
2022/10/22 05:45:14;;;;;;;16.42;2.33;;;;;;;12.41;100.00;100985.19;5052553;28;20032;-74
2022/10/22 05:47:39;;;;;;;10.65;2.25;;;;;;;12.47;100.00;100980.06;5052921;28;20025;-74
2022/10/22 05:50:05;;;;;;;10.07;2.28;;;;;;;12.47;100.00;100987.25;5052951;28;20045;-74
2022/10/22 05:52:30;;;;;;;9.90;2.35;;;;;;;12.41;100.00;100985.19;5052586;28;20036;-74
2022/10/22 05:54:55;;;;;;;9.38;2.47;;;;;;;12.35;100.00;100987.44;5052650;28;20025;-74
2022/10/22 05:57:21;;;;;;;6.80;2.17;;;;;;;12.27;100.00;100995.34;5052476;28;20057;-74
2022/10/22 05:59:46;;;;;;;12.30;2.70;;;;;;;12.22;100.00;100994.94;5052726;28;20033;-74
2022/10/22 06:02:12;;;;;;;8.82;2.42;;;;;;;12.24;100.00;101002.78;5052409;28;20129;-73
2022/10/22 06:04:38;;;;;;;9.38;2.70;;;;;;;12.28;100.00;101004.19;5052351;28;20044;-73
2022/10/22 06:07:03;;;;;;;6.43;2.05;;;;;;;12.29;100.00;100998.69;5052668;28;20037;-73
2022/10/22 06:09:35;;;;;;;11.02;2.00;;;;;;;12.31;100.00;101004.72;5051953;28;20041;-73
2022/10/22 06:12:01;;;;;;;7.88;2.10;;;;;;;12.35;100.00;101011.44;5052499;28;20041;-73
2022/10/22 06:14:27;;;;;;;12.85;2.95;;;;;;;12.35;100.00;101010.63;5052102;28;20036;-73
2022/10/22 06:16:53;;;;;;;10.40;1.90;;;;;;;12.36;100.00;101009.63;5052416;28;20082;-73
2022/10/22 06:19:21;;;;;;;12.10;2.30;;;;;;;12.39;100.00;101016.50;5051957;28;20028;-73
2022/10/22 06:21:47;;;;;;;7.90;1.88;;;;;;;12.40;100.00;101013.66;5052624;28;20029;-73
2022/10/22 06:24:13;;;;;;;8.10;2.13;;;;;;;12.36;100.00;101017.66;5052008;28;20088;-73
2022/10/22 06:26:39;;;;;;;11.98;1.85;;;;;;;12.34;100.00;101019.59;5051924;28;20135;-73
2022/10/22 06:29:05;;;;;;;8.70;2.25;;;;;;;12.34;100.00;101023.09;5051703;28;20469;-73
2022/10/22 06:31:36;;;;;;;12.73;2.50;;;;;;;12.36;100.00;101020.31;5051415;28;20094;-73
2022/10/22 06:34:03;;;;;;;10.77;2.08;;;;;;;12.40;100.00;101028.84;5052100;28;20091;-73
2022/10/22 06:36:29;;;;;;;7.07;1.92;;;;;;;12.41;100.00;101020.69;5051722;28;20065;-73
2022/10/22 06:38:55;;;;;;;7.38;1.90;;;;;;;12.42;100.00;101033.06;5052072;28;20433;-73
2022/10/22 06:41:21;;;;;;;9.38;2.55;;;;;;;12.48;100.00;101034.28;5051471;28;20112;-74
2022/10/22 06:43:47;;;;;;;12.50;2.13;;;;;;;12.54;100.00;101049.72;5051993;28;20047;-73
2022/10/22 06:46:18;;;;;;;11.40;2.30;;;;;;;12.60;100.00;101045.59;5052136;28;20093;-73
2022/10/22 06:48:51;;;;;;;6.47;1.52;;;;;;;12.64;100.00;101044.34;5051786;28;20028;-73
2022/10/22 06:51:17;;;;;;;8.85;1.80;;;;;;;12.69;100.00;101058.94;5052186;28;20040;-73
2022/10/22 06:53:42;;;;;;;11.60;1.98;;;;;;;12.76;100.00;101066.34;5051694;28;20040;-73
2022/10/22 06:56:11;;;;;;;15.20;2.22;;;;;;;12.82;100.00;101063.06;5052244;28;20068;-74
2022/10/22 06:58:36;;;;;;;11.82;2.03;;;;;;;12.87;100.00;101063.50;5051641;28;20104;-74
2022/10/22 07:01:08;;;;;;;8.05;1.77;;;;;;;12.93;100.00;101068.22;5051922;28;20082;-73
2022/10/22 07:03:33;;;;;;;11.65;2.38;;;;;;;13.00;100.00;101073.81;5051628;28;20495;-74
2022/10/22 07:06:00;;;;;;;10.98;2.30;;;;;;;13.05;100.00;101069.69;5051687;28;20037;-74
2022/10/22 07:08:26;;;;;;;15.88;2.25;;;;;;;13.08;100.00;101068.56;5051552;28;20036;-74
2022/10/22 07:10:51;;;;;;;8.80;1.88;;;;;;;13.07;100.00;101072.22;5052021;28;20028;-74
2022/10/22 07:13:16;;;;;;;10.30;2.10;;;;;;;13.04;100.00;101076.03;5051917;28;20496;-73
2022/10/22 07:15:41;;;;;;;8.05;1.80;;;;;;;13.02;100.00;101077.19;5051763;28;20036;-75
2022/10/22 07:18:07;;;;;;;10.82;2.08;;;;;;;13.02;100.00;101087.88;5051856;28;20033;-73
2022/10/22 07:20:32;;;;;;;7.00;1.70;;;;;;;13.00;100.00;101096.03;5051470;28;20064;-74
2022/10/22 07:22:57;;;;;;;11.27;2.65;;;;;;;13.03;100.00;101105.56;5050366;28;20053;-73
2022/10/22 07:25:23;;;;;;;5.18;1.80;;;;;;;13.05;100.00;101103.59;5052156;28;20037;-73
2022/10/22 07:27:48;;;;;;;11.23;1.77;;;;;;;13.08;100.00;101107.78;5051231;28;20076;-73
2022/10/22 07:30:13;;;;;;;7.93;2.03;;;;;;;13.07;100.00;101114.97;5051820;28;20527;-73
2022/10/22 07:32:39;;;;;;;6.93;1.60;;;;;;;13.10;100.00;101119.16;5051349;28;20466;-74
2022/10/22 07:35:05;;;;;;;9.93;2.00;;;;;;;13.14;100.00;101131.25;5051756;28;20362;-73
2022/10/22 07:37:30;;;;;;;11.57;1.90;;;;;;;13.18;100.00;101129.94;5051425;28;20497;-75
2022/10/22 07:39:55;;;;;;;9.48;1.80;;;;;;;13.30;100.00;101138.59;5053108;28;20086;-74
2022/10/22 07:42:21;;;;;;;4.95;1.88;;;;;;;13.36;100.00;101141.56;5055501;28;20033;-75
2022/10/22 07:44:46;;;;;;;8.38;1.70;;;;;;;13.45;100.00;101142.50;5055027;28;20037;-76
2022/10/22 07:47:11;;;;;;;18.27;2.65;;;;;;;13.47;100.00;101143.16;5055240;28;20044;-75
2022/10/22 07:49:37;;;;;;;7.88;1.80;;;;;;;13.49;100.00;101146.53;5054915;28;20041;-75
2022/10/22 07:52:02;;;;;;;11.38;2.08;;;;;;;13.52;100.00;101151.56;5055202;28;20075;-75
2022/10/22 07:54:27;;;;;;;11.48;2.05;;;;;;;13.52;100.00;101153.41;5055141;28;20037;-75
2022/10/22 07:56:53;;;;;;;21.63;2.55;;;;;;;13.53;100.00;101152.44;5054743;28;20029;-74
2022/10/22 07:59:18;;;;;;;11.68;2.85;;;;;;;13.58;100.00;101158.16;5054932;28;20033;-73
2022/10/22 08:01:45;;;;;;;6.57;1.80;;;;;;;13.68;100.00;101166.94;5053328;28;20036;-74
2022/10/22 08:04:11;;;;;;;7.60;1.70;;;;;;;13.72;100.00;101162.97;5053721;28;20381;-74
2022/10/22 08:06:37;;;;;;;7.95;1.90;;;;;;;13.76;100.00;101163.50;5054366;28;20032;-74
2022/10/22 08:09:02;;;;;;;8.80;2.95;;;;;;;13.84;100.00;101158.25;5054867;28;20040;-75
2022/10/22 08:11:28;;;;;;;7.97;2.03;;;;;;;13.96;100.00;101171.38;5054570;28;20430;-75
2022/10/22 08:13:53;;;;;;;11.55;2.28;;;;;;;14.10;100.00;101178.88;5054427;28;20032;-75
2022/10/22 08:16:19;;;;;;;6.78;1.80;;;;;;;14.27;100.00;101177.16;5054798;28;20029;-74
2022/10/22 08:18:44;;;;;;;8.75;1.75;;;;;;;14.46;100.00;101184.19;5054388;28;20029;-74
2022/10/22 08:21:10;;;;;;;7.72;2.22;;;;;;;14.61;100.00;101188.03;5054593;28;20124;-74
2022/10/22 08:23:36;;;;;;;12.15;2.03;;;;;;;14.69;100.00;101187.22;5053694;28;20057;-74
2022/10/22 08:26:01;;;;;;;7.57;1.73;;;;;;;14.95;100.00;101189.88;5054489;28;20033;-75
2022/10/22 08:28:28;;;;;;;9.63;1.90;;;;;;;15.28;100.00;101190.03;5053116;28;20029;-74
2022/10/22 08:30:53;;;;;;;10.27;2.70;;;;;;;15.69;100.00;101192.03;5053919;28;20041;-74
2022/10/22 08:33:19;;;;;;;11.43;2.22;;;;;;;15.87;100.00;101186.56;5054507;28;20033;-75
2022/10/22 08:35:49;;;;;;;13.20;2.78;;;;;;;15.91;100.00;101193.25;5053988;28;20497;-75
2022/10/22 08:38:14;;;;;;;8.25;2.03;;;;;;;16.03;100.00;101196.44;5054218;28;20472;-76
2022/10/22 08:40:41;;;;;;;9.18;1.92;;;;;;;16.26;100.00;101206.53;5053841;28;20060;-76
2022/10/22 08:43:28;;;;;;;10.07;1.90;;;;;;;16.34;100.00;101204.69;5054253;28;20029;-75
2022/10/22 08:46:07;;;;;;;13.35;2.28;;;;;;;16.02;100.00;101202.84;5053796;28;20488;-76
2022/10/22 08:48:51;;;;;;;8.88;2.30;;;;;;;16.35;100.00;101208.22;5054193;28;20025;-75
2022/10/22 08:51:21;;;;;;;12.32;2.40;;;;;;;16.56;100.00;101213.91;5053680;28;20083;-75
2022/10/22 08:53:49;;;;;;;10.30;2.20;;;;;;;16.55;100.00;101219.44;5053553;28;20036;-77
2022/10/22 08:56:14;;;;;;;7.15;1.90;;;;;;;16.67;100.00;101225.31;5054082;28;20029;-77
2022/10/22 08:59:11;;;;;;;14.95;2.17;;;;;;;16.88;100.00;101224.81;5053777;28;20370;-77
2022/10/22 09:01:45;;;;;;;13.82;2.58;;;;;;;17.05;100.00;101228.31;5050445;28;20048;-76
2022/10/22 09:04:24;;;;;;;12.93;2.70;;;;;;;17.48;100.00;101234.22;5053549;28;20035;-76
2022/10/22 09:06:51;;;;;;;14.35;2.17;;;;;;;17.96;100.00;101231.47;5053410;28;20112;-77
2022/10/22 09:09:18;;;;;;;11.38;2.28;;;;;;;18.92;100.00;101226.44;5053602;28;20041;-75
2022/10/22 09:11:55;;;;;;;8.38;2.15;;;;;;;18.89;100.00;101244.88;5053070;28;20086;-75
2022/10/22 09:14:23;;;;;;;15.95;2.30;;;;;;;18.15;100.00;101249.84;5053296;28;20102;-76
2022/10/22 09:17:23;;;;;;;12.50;1.90;;;;;;;17.59;100.00;101249.13;5052792;28;20162;-76
2022/10/22 09:20:02;;;;;;;9.82;2.20;;;;;;;17.34;100.00;101251.06;5052852;28;20033;-75
2022/10/22 09:23:12;;;;;;;13.13;2.30;;;;;;;17.75;100.00;101258.94;5053212;28;20025;-75
2022/10/22 09:25:38;;;;;;;7.35;1.83;;;;;;;17.26;100.00;101249.25;5050782;28;20071;-75
2022/10/22 09:28:03;;;;;;;8.77;1.75;;;;;;;17.07;100.00;101254.00;5052552;28;20461;-75
2022/10/22 09:30:33;;;;;;;9.80;2.22;;;;;;;16.90;100.00;101255.06;5053119;28;20437;-75
2022/10/22 09:33:12;;;;;;;8.90;2.38;;;;;;;16.83;100.00;101257.53;5052974;28;20131;-78
2022/10/22 09:35:50;;;;;;;11.82;2.70;;;;;;;16.67;100.00;101258.38;5053063;28;20497;-75
2022/10/22 09:38:19;;;;;;;14.30;2.13;;;;;;;16.90;100.00;101266.63;5053075;28;20024;-75
2022/10/22 09:40:48;;;;;;;10.40;2.45;;;;;;;17.23;100.00;101271.09;5052552;28;20078;-76
2022/10/22 09:43:14;;;;;;;12.73;2.25;;;;;;;17.85;100.00;101277.56;5052522;28;20496;-74
2022/10/22 09:45:40;;;;;;;14.77;2.63;;;;;;;18.15;100.00;101276.75;5052872;28;20040;-74
2022/10/22 09:48:27;;;;;;;11.65;2.20;;;;;;;17.86;100.00;101272.00;5052436;28;20124;-74
2022/10/22 09:51:18;;;;;;;22.92;3.55;;;;;;;17.25;100.00;101279.81;5052245;28;20387;-74
2022/10/22 09:53:45;;;;;;;;;;;;;;;17.44;100.00;101282.13;5052665;28;20032;-72
2022/10/22 09:56:24;;;;;;;11.32;2.35;;;;;;;18.03;100.00;101288.94;5052800;28;19920;-74
2022/10/22 09:58:50;;;;;;;6.95;1.70;;;;;;;18.08;100.00;101291.94;5052475;28;20032;-75
2022/10/22 10:01:19;;;;;;;10.05;2.22;;;;;;;18.19;100.00;101293.38;5052572;28;20453;-75
2022/10/22 10:03:46;;;;;;;14.35;1.80;;;;;;;18.35;100.00;101297.84;5050077;28;20384;-76
2022/10/22 10:06:17;;;;;;;11.68;2.60;;;;;;;18.16;100.00;101293.75;5052585;28;20025;-75
2022/10/22 10:08:42;;;;;;;16.05;2.33;;;;;;;17.86;100.00;101303.47;5052641;28;20075;-74
2022/10/22 10:11:16;;;;;;;12.57;2.20;;;;;;;17.76;100.00;101315.28;5052194;28;20025;-74
2022/10/22 10:13:59;;;;;;;16.95;2.20;;;;;;;17.64;100.00;101305.91;5052478;28;20037;-74
2022/10/22 10:16:56;;;;;;;13.07;2.00;;;;;;;17.72;100.00;101313.97;5052197;28;20032;-74
2022/10/22 10:19:37;;;;;;;14.70;2.47;;;;;;;17.56;100.00;101330.19;5052561;28;20024;-74
2022/10/22 10:22:21;;;;;;;12.65;2.25;;;;;;;17.50;100.00;101322.81;5052078;28;20480;-75
2022/10/22 10:25:34;;;;;;;14.98;2.40;;;;;;;17.24;100.00;101326.53;5052797;28;20067;-75
2022/10/22 10:28:18;;;;;;;14.05;2.42;;;;;;;17.15;100.00;101332.94;5034830;28;20064;-75
2022/10/22 10:31:01;;;;;;;12.60;2.50;;;;;;;17.11;100.00;101337.84;5052404;28;20032;-75
2022/10/22 10:33:35;;;;;;;14.15;2.30;;;;;;;17.21;100.00;101338.50;5052396;28;20074;-75
2022/10/22 10:36:10;;;;;;;14.32;2.58;;;;;;;17.19;100.00;101343.19;5052031;28;20025;-74
2022/10/22 10:39:00;;;;;;;16.67;3.83;;;;;;;17.36;100.00;101349.41;5051921;28;20037;-75
2022/10/22 10:41:37;;;;;;;17.95;3.30;;;;;;;17.43;100.00;101354.91;5052188;28;20032;-74
2022/10/22 10:44:32;;;;;;;11.95;2.40;;;;;;;17.65;100.00;101349.81;5051691;28;20154;-75
2022/10/22 10:47:15;;;;;;;17.08;3.05;;;;;;;17.60;100.00;101347.63;5051651;28;20036;-74
2022/10/22 10:49:42;;;;;;;18.23;2.97;;;;;;;17.53;100.00;101357.44;5051782;28;20029;-74
2022/10/22 10:52:10;;;;;;;12.85;2.67;;;;;;;17.44;100.00;101356.59;5050272;28;20064;-75
2022/10/22 10:55:12;;;;;;;13.48;2.38;;;;;;;17.28;100.00;101355.59;5051726;28;20150;-74
2022/10/22 10:58:23;;;;;;;14.43;2.75;;;;;;;17.09;100.00;101359.53;5052185;28;20120;-74
2022/10/22 11:00:59;;;;;;;23.25;2.88;;;;;;;17.08;100.00;101351.63;5051466;28;20124;-74
2022/10/22 11:03:50;;;;;;;16.33;3.03;;;;;;;17.20;100.00;101354.81;5051853;28;20465;-74
2022/10/22 11:06:18;;;;;;;18.08;2.70;;;;;;;17.35;100.00;101368.41;5048256;28;20041;-74
2022/10/22 11:09:07;;;;;;;15.60;2.63;;;;;;;17.49;100.00;101374.91;5051557;28;20036;-74
2022/10/22 11:11:54;;;;;;;14.23;2.42;;;;;;;17.59;100.00;101365.63;5052107;28;20029;-74
2022/10/22 11:14:34;;;;;;;14.63;2.83;;;;;;;17.68;100.00;101369.16;5052130;28;20025;-75
2022/10/22 11:17:16;;;;;;;16.80;3.22;;;;;;;17.69;100.00;101375.34;5055454;28;20029;-75
2022/10/22 11:20:20;;;;;;;17.60;2.75;;;;;;;17.60;100.00;101374.53;5055788;28;20025;-74
2022/10/22 11:23:03;;;;;;;14.80;3.15;;;;;;;17.45;100.00;101383.34;5054339;28;20489;-74
2022/10/22 11:25:43;;;;;;;17.45;2.42;;;;;;;17.29;100.00;101372.59;5055673;28;20350;-74
2022/10/22 11:28:17;;;;;;;14.57;2.83;;;;;;;17.07;100.00;101379.50;5055182;28;20039;-74